Nearby METAR Reports

 

KTAN - Taunton, Massachusetts, USA
Distance from station: W 5mi, 8km
Updated: 12/08/2019 11:52pm
Clear
Clear
 Wind from calm
Wind: Calm
Temperature: 28°F , -2°C
Dew Point: 25°F , -4°C
Humidity: 86%
Barometer: 30.34 inHg , 1027.4 hPa
Clouds: Clear
Visibility: 8 miles , 13 km
2019/12/09 04:52 KTAN 090452Z AUTO 00000KT 8SM CLR M02/M04 A3034 RMK AO2 SLP275 T10221044 400281128
KPYM - Plymouth, Massachusetts, USA
Distance from station: ENE 10mi, 16km
Updated: 12/08/2019 11:52pm
Clear
Clear
 Wind from SSW
Wind: SSW 9 mph , 15 km/h
Temperature: 43°F , 6°C
Wind Chill: 38°F , 3°C
Dew Point: 34°F , 1°C
Humidity: 71%
Barometer: 30.34 inHg , 1027.4 hPa
Clouds: Clear
Visibility: 10 miles , 16 km
2019/12/09 04:52 KPYM 090452Z AUTO 20008KT 10SM CLR 06/01 A3034 RMK AO2 SLP276 T00560011 400561111
 
KEWB - New Bedford, Massachusetts, USA
Distance from station: S 14mi, 23km
Updated: 12/08/2019 11:53pm
Clear
Clear
 Wind from S
Wind: S 12 mph , 19 km/h
Temperature: 45°F , 7°C
Wind Chill: 39°F , 4°C
Dew Point: 34°F , 1°C
Humidity: 66%
Barometer: 30.34 inHg , 1027.4 hPa
Clouds: Clear
Visibility: 10 miles , 16 km
2019/12/09 04:53 KEWB 090453Z AUTO 19010KT 10SM CLR 07/01 A3034 RMK AO2 SLP276 T00670011 400671106 $
KGHG - Marshfield, Massachusetts, USA
Distance from station: NE 20mi, 31km
Updated: 12/09/2019 12:35am
Clear
Clear
 Wind from SSW
Wind: SSW 7 mph , 11 km/h
Temperature: 39°F , 4°C
Wind Chill: 34°F , 1°C
Dew Point: 34°F , 1°C
Humidity: 81%
Barometer: 30.34 inHg , 1027.4 hPa
Clouds: Clear
Visibility: 10 miles , 16 km
2019/12/09 05:35 KGHG 090535Z AUTO 21006KT 10SM CLR 04/01 A3034 RMK AO2
 
KOWD - Norwood, Massachusetts, USA
Distance from station: NNW 24mi, 39km
Updated: 12/08/2019 11:53pm
Clear
Clear
 Wind from SSW
Wind: SSW 8 mph , 13 km/h
Temperature: 41°F , 5°C
Wind Chill: 36°F , 2°C
Dew Point: 30°F , -1°C
Humidity: 66%
Barometer: 30.33 inHg , 1027.1 hPa
Clouds: Clear
Visibility: 10 miles , 16 km
2019/12/09 04:53 KOWD 090453Z AUTO 20007KT 10SM CLR 05/M01 A3033 RMK AO2 SLP272 T00501011 400561122
KMQE - East Milton, Massachusetts, USA
Distance from station: NNW 25mi, 40km
Updated: 12/08/2019 10:51pm
NOT Current

 Wind from SSW
Wind: SSW 21 mph , 33 km/h, Gust: 31 mph , 50 km/h
Temperature: 34°F , 1°C
Wind Chill: 22°F , -6°C
Dew Point: 28°F , -2°C
Humidity: 81%
Barometer: 30.31 inHg , 1026.4 hPa
2019/12/09 03:51 KMQE 090351Z AUTO 20018G27KT 01/M02 A3031 RMK AO1 PK WND 20028/0325 SLP282 T00111017
 
KFMH - Falmouth/Otis Ab, Massachusetts, USA
Distance from station: SE 27mi, 44km
Updated: 12/08/2019 11:56pm
Overcast
Overcast
 Wind from SSW
Wind: SSW 15 mph , 24 km/h
Temperature: 43°F , 6°C
Wind Chill: 36°F , 2°C
Dew Point: 36°F , 2°C
Humidity: 76%
Barometer: 30.37 inHg , 1028.4 hPa
Clouds: Overcast
Visibility: 10 miles , 16 km
Cloud details: Overcast 3300 ft
2019/12/09 04:56 KFMH 090456Z 20013KT 10SM OVC033 06/02 A3037
KPVD - Providence/Green, Rhode Island, USA
Distance from station: WSW 29mi, 47km
Updated: 12/08/2019 11:51pm
Mostly cloudy
Mostly cloudy
 Wind from S
Wind: S 3 mph , 6 km/h
Temperature: 34°F , 1°C
Dew Point: 30°F , -1°C
Humidity: 87%
Barometer: 30.36 inHg , 1028.1 hPa
Clouds: Mostly cloudy
Visibility: 10 miles , 16 km
Cloud details: Few Clouds 3000 ft
Few Clouds 21000 ft
Mostly cloudy 30000 ft
2019/12/09 04:51 KPVD 090451Z 19003KT 10SM FEW030 FEW210 BKN300 01/M01 A3036 RMK AO2 SLP281 LAST T00111011 400221089
 
KSFZ - Pawtucket, Rhode Island, USA
Distance from station: W 30mi, 48km
Updated: 12/08/2019 11:56pm
Clear
Clear
 Wind from SW
Wind: SW 5 mph , 7 km/h
Temperature: 36°F , 2°C
Wind Chill: 32°F , 0°C
Dew Point: 30°F , -1°C
Humidity: 81%
Barometer: 30.34 inHg , 1027.4 hPa
Clouds: Clear
Visibility: 10 miles , 16 km
2019/12/09 04:56 KSFZ 090456Z AUTO 22004KT 10SM CLR 02/M01 A3034 RMK AO2 SLP222 T00171006 400171106 FZRANO
KUUU - Newport, Rhode Island, USA
Distance from station: SW 31mi, 50km
Updated: 12/08/2019 11:53pm
Mostly cloudy
Mostly cloudy
 Wind from S
Wind: S 13 mph , 20 km/h, Gust: 21 mph , 33 km/h
Temperature: 46°F , 8°C
Wind Chill: 40°F , 4°C
Dew Point: 36°F , 2°C
Humidity: 66%
Barometer: 30.35 inHg , 1027.8 hPa
Clouds: Mostly cloudy
Visibility: 10 miles , 16 km
Cloud details: Mostly cloudy 3100 ft
2019/12/09 04:53 KUUU 090453Z AUTO 19011G18KT 10SM BKN031 08/02 A3035 RMK AO2 SLP278 T00830022 400831072
 
KOQU - N. Kingston/Quon, Rhode Island, USA
Distance from station: SW 32mi, 52km
Updated: 12/08/2019 5:50pm
NOT Current
Mostly cloudy
Mostly cloudy
 Wind from WSW
Wind: WSW 9 mph , 15 km/h
Temperature: 36°F , 2°C
Wind Chill: 29°F , -2°C
Dew Point: 27°F , -3°C
Humidity: 70%
Barometer: 30.44 inHg , 1030.8 hPa
Clouds: Mostly cloudy
Visibility: 10 miles , 16 km
Cloud details: Few Clouds 3000 ft
Mostly cloudy 25000 ft
2019/12/08 22:50 KOQU 082250Z 25008KT 10SM FEW030 BKN250 02/M03 A3044 RMK LAST
KBOS - Boston, Massachusetts, USA
Distance from station: N 33mi, 54km
Updated: 12/08/2019 11:54pm
Overcast
Overcast
 Wind from SW
Wind: SW 17 mph , 28 km/h, Gust: 25 mph , 41 km/h
Temperature: 41°F , 5°C
Wind Chill: 33°F , 1°C
Dew Point: 30°F , -1°C
Humidity: 66%
Barometer: 30.31 inHg , 1026.4 hPa
Clouds: Overcast
Visibility: 10 miles , 16 km
Cloud details: Mostly cloudy 15000 ft
Overcast 18000 ft
2019/12/09 04:54 KBOS 090454Z 22015G22KT 10SM BKN150 OVC180 05/M01 A3031 RMK AO2 SLP265 T00501011 400501050
 
KHYA - Hyannis, Massachusetts, USA
Distance from station: ESE 37mi, 59km
Updated: 12/08/2019 11:56pm
Mostly cloudy
Mostly cloudy
 Wind from S
Wind: S 12 mph , 19 km/h, Gust: 20 mph , 31 km/h
Temperature: 45°F , 7°C
Wind Chill: 39°F , 4°C
Dew Point: 36°F , 2°C
Humidity: 71%
Barometer: 30.36 inHg , 1028.1 hPa
Clouds: Mostly cloudy
Visibility: 10 miles , 16 km
Cloud details: Mostly cloudy 3700 ft
2019/12/09 04:56 KHYA 090456Z AUTO 19010G17KT 10SM BKN037 07/02 A3036 RMK AO2 SLP282 T00670022 400671056
KMVY - Marthas Vineyard, Massachusetts, USA
Distance from station: SSE 37mi, 60km
Updated: 12/08/2019 11:53pm
Few Clouds
Few Clouds
 Wind from S
Wind: S 15 mph , 24 km/h, Gust: 25 mph , 41 km/h
Temperature: 45°F , 7°C
Wind Chill: 38°F , 3°C
Dew Point: 36°F , 2°C
Humidity: 71%
Barometer: 30.38 inHg , 1028.8 hPa
Clouds: Few Clouds
Visibility: 10 miles , 16 km
Cloud details: Few Clouds 3600 ft
2019/12/09 04:53 KMVY 090453Z AUTO 19013G22KT 10SM FEW036 07/02 A3038 RMK AO2 SLP287 T00720022 400781122
 
KPVC - Provincetown, Massachusetts, USA
Distance from station: ENE 38mi, 61km
Updated: 12/08/2019 11:56pm
Clear
Clear
 Wind from S
Wind: S 18 mph , 30 km/h, Gust: 28 mph , 44 km/h
Temperature: 45°F , 7°C
Wind Chill: 37°F , 3°C
Dew Point: 37°F , 3°C
Humidity: 76%
Barometer: 30.35 inHg , 1027.8 hPa
Clouds: Clear
Visibility: 10 miles , 16 km
2019/12/09 04:56 KPVC 090456Z AUTO 19016G24KT 10SM CLR 07/03 A3035 RMK AO2 SLP277 T00670028 400671022 PNO $
KBED - Bedford, Massachusetts, USA
Distance from station: NNW 44mi, 72km
Updated: 12/08/2019 11:51pm
Clear
Clear
 Wind from SW
Wind: SW 10 mph , 17 km/h
Temperature: 37°F , 3°C
Wind Chill: 30°F , -1°C
Dew Point: 28°F , -2°C
Humidity: 70%
Barometer: 30.30 inHg , 1026.1 hPa
Clouds: Clear
Visibility: 10 miles , 16 km
2019/12/09 04:51 KBED 090451Z AUTO 22009KT 10SM CLR 03/M02 A3030 RMK AO2 SLP275 T00281022 400281172
 
KBVY - Beverly, Massachusetts, USA
Distance from station: 0 48mi, 77km
Updated: 12/08/2019 11:53pm
Clear
Clear
 Wind from SSW
Wind: SSW 7 mph , 11 km/h
Temperature: 37°F , 3°C
Wind Chill: 32°F , 0°C
Dew Point: 28°F , -2°C
Humidity: 70%
Barometer: 30.31 inHg , 1026.4 hPa
Clouds: Clear
Visibility: 10 miles , 16 km
2019/12/09 04:53 KBVY 090453Z AUTO 21006KT 10SM CLR 03/M02 A3031 RMK AO2 SLP260 T00331017 400391128
KCQX - Chatham, Massachusetts, USA
Distance from station: ESE 49mi, 80km
Updated: 12/08/2019 11:52pm
Few Clouds
Few Clouds
 Wind from SSW
Wind: SSW 10 mph , 17 km/h
Temperature: 43°F , 6°C
Wind Chill: 37°F , 3°C
Dew Point: 37°F , 3°C
Humidity: 81%
Barometer: 30.40 inHg , 1029.5 hPa
Clouds: Few Clouds
Visibility: 10 miles , 16 km
Cloud details: Few Clouds 3400 ft
2019/12/09 04:52 KCQX 090452Z AUTO 20009KT 10SM FEW034 06/03 A3040 RMK AO2 SLP297 T00560028 400561061